createdAt,value
2023-01-03T00:04:51.616Z,100202.66
2023-01-03T00:09:54.617Z,100199.20
2023-01-03T00:14:58.137Z,100209.46
2023-01-03T00:20:01.248Z,100222.02
2023-01-03T00:25:04.896Z,100223.21
2023-01-03T00:30:09.269Z,100223.88
2023-01-03T00:35:12.420Z,100219.61
2023-01-03T00:40:15.526Z,100221.76
2023-01-03T00:45:20.344Z,100232.96
2023-01-03T00:50:24.202Z,100243.77
2023-01-03T00:55:27.315Z,100254.18
2023-01-03T01:00:30.323Z,100263.02
2023-01-03T01:05:33.833Z,100277.25
2023-01-03T01:10:36.842Z,100281.40
2023-01-03T01:15:39.757Z,100296.16
2023-01-03T01:20:42.759Z,100298.38
2023-01-03T01:25:45.757Z,100296.92
2023-01-03T01:30:48.822Z,100300.17
2023-01-03T01:35:52.029Z,100315.13
2023-01-03T01:40:55.918Z,100315.99
2023-01-03T01:46:03.428Z,100317.70
2023-01-03T01:51:09.902Z,100321.37
2023-01-03T01:56:25.994Z,100327.81
2023-01-03T02:01:30.147Z,100331.83
2023-01-03T02:06:34.320Z,100328.35
2023-01-03T02:12:12.315Z,100330.95
2023-01-03T02:17:18.293Z,100334.83
2023-01-03T02:22:34.814Z,100343.52
2023-01-03T02:28:16.018Z,100345.44
2023-01-03T02:33:37.950Z,100349.27
2023-01-03T02:39:03.776Z,100352.93
2023-01-03T02:44:33.233Z,100356.60
2023-01-03T02:49:51.535Z,100362.67
2023-01-03T02:54:57.205Z,100365.13
2023-01-03T03:00:12.013Z,100363.91
2023-01-03T03:05:22.040Z,100358.88
2023-01-03T03:10:44.992Z,100363.79
2023-01-03T03:15:59.982Z,100365.23
2023-01-03T03:21:25.022Z,100362.15
2023-01-03T03:26:37.736Z,100366.61
2023-01-03T03:31:47.871Z,100371.23
2023-01-03T03:37:00.235Z,100367.99
2023-01-03T03:42:40.726Z,100374.46
2023-01-03T03:48:16.294Z,100375.88
2023-01-03T03:53:24.519Z,100389.65
2023-01-03T03:58:32.786Z,100400.27
2023-01-03T04:03:39.231Z,100407.41
2023-01-03T04:08:42.244Z,100417.69
2023-01-03T04:13:45.249Z,100433.17
2023-01-03T04:18:48.359Z,100437.36
2023-01-03T04:23:51.263Z,100441.70
2023-01-03T04:28:54.406Z,100455.60
2023-01-03T04:33:57.381Z,100459.59
2023-01-03T04:39:00.387Z,100460.29
2023-01-03T04:44:04.618Z,100470.71
2023-01-03T04:49:10.374Z,100474.36
2023-01-03T04:54:13.511Z,100476.98
2023-01-03T04:59:16.408Z,100478.00
2023-01-03T05:04:19.541Z,100488.94
2023-01-03T05:09:23.416Z,100489.43
2023-01-03T05:14:26.350Z,100484.02
2023-01-03T05:19:29.371Z,100489.35
2023-01-03T05:25:07.585Z,100492.80
2023-01-03T05:30:11.386Z,100495.55
2023-01-03T05:35:14.432Z,100499.88
2023-01-03T05:40:17.422Z,100505.94
2023-01-03T05:45:25.657Z,100514.77
2023-01-03T05:50:28.659Z,100520.52
2023-01-03T05:55:31.701Z,100522.30
2023-01-03T06:00:35.257Z,100534.83
2023-01-03T06:05:38.193Z,100549.44
2023-01-03T06:10:41.400Z,100555.87
2023-01-03T06:16:04.432Z,100563.17
2023-01-03T06:21:07.383Z,100565.59
2023-01-03T06:26:10.566Z,100575.50
2023-01-03T06:31:13.916Z,100578.96
2023-01-03T06:36:19.503Z,100587.93
2023-01-03T06:41:22.480Z,100594.80
2023-01-03T06:46:44.494Z,100603.90
2023-01-03T06:52:08.343Z,100611.26
2023-01-03T06:57:11.333Z,100620.50
2023-01-03T07:02:30.193Z,100635.48
2023-01-03T07:07:33.221Z,100639.46
2023-01-03T07:12:54.971Z,100642.79
2023-01-03T07:17:57.971Z,100647.51
2023-01-03T07:23:00.976Z,100655.70
2023-01-03T07:28:08.087Z,100657.46
2023-01-03T07:33:14.708Z,100665.11
2023-01-03T07:38:17.676Z,100670.41
2023-01-03T07:43:39.035Z,100674.70
2023-01-03T07:48:43.508Z,100677.77
2023-01-03T07:53:49.713Z,100678.98
2023-01-03T07:58:52.945Z,100677.29
2023-01-03T08:03:56.676Z,100674.50
2023-01-03T08:09:18.118Z,100677.33
2023-01-03T08:14:25.686Z,100676.84
2023-01-03T08:19:29.446Z,100678.60
2023-01-03T08:24:32.766Z,100680.86
2023-01-03T08:29:35.765Z,100683.98
2023-01-03T08:34:42.255Z,100689.54
2023-01-03T08:39:51.711Z,100698.04
2023-01-03T08:45:02.608Z,100704.48
2023-01-03T08:50:06.566Z,100711.10
2023-01-03T08:55:10.057Z,100707.94
2023-01-03T09:00:14.020Z,100710.05
2023-01-03T09:05:17.191Z,100716.34
2023-01-03T09:10:20.300Z,100721.40
2023-01-03T09:15:24.021Z,100725.43
2023-01-03T09:20:27.130Z,100730.29
2023-01-03T09:25:36.514Z,100730.46
2023-01-03T09:30:40.314Z,100731.67
2023-01-03T09:35:43.424Z,100736.16
2023-01-03T09:40:48.169Z,100735.07
2023-01-03T09:45:53.842Z,100743.35
2023-01-03T09:51:18.350Z,100760.25
2023-01-03T09:56:25.960Z,100762.95
2023-01-03T10:01:51.179Z,100770.69
2023-01-03T10:07:00.342Z,100772.63
2023-01-03T10:12:33.983Z,100773.66
2023-01-03T10:18:04.587Z,100779.38
2023-01-03T10:23:09.881Z,100788.19
2023-01-03T10:28:21.704Z,100786.60
2023-01-03T10:33:45.615Z,100789.71
2023-01-03T10:38:52.825Z,100791.27
2023-01-03T10:44:04.410Z,100788.99
2023-01-03T10:49:30.367Z,100787.62
2023-01-03T10:54:51.781Z,100794.75
2023-01-03T10:59:55.094Z,100801.89
2023-01-03T11:05:16.349Z,100795.61
2023-01-03T11:10:19.732Z,100792.48
2023-01-03T11:15:37.895Z,100797.70
2023-01-03T11:20:47.947Z,100791.45
2023-01-03T11:26:15.490Z,100788.66
2023-01-03T11:31:52.770Z,100795.27
2023-01-03T11:37:11.962Z,100794.91
2023-01-03T11:42:30.526Z,100800.64
2023-01-03T11:47:45.722Z,100798.55
2023-01-03T11:52:48.727Z,100799.25
2023-01-03T11:57:54.706Z,100799.60
2023-01-03T12:03:10.161Z,100799.42
2023-01-03T12:08:28.788Z,100812.45
2023-01-03T12:13:49.085Z,100813.52
2023-01-03T12:18:57.930Z,100822.54
2023-01-03T12:24:26.742Z,100815.89
2023-01-03T12:30:05.689Z,100819.16
2023-01-03T12:35:27.343Z,100823.33
2023-01-03T12:40:51.131Z,100823.14
2023-01-03T12:46:13.135Z,100823.48
2023-01-03T12:51:20.288Z,100815.28
2023-01-03T12:56:45.000Z,100822.19
2023-01-03T13:02:01.241Z,100824.42
2023-01-03T13:07:21.017Z,100833.77
2023-01-03T13:12:30.792Z,100835.85
2023-01-03T13:17:44.555Z,100839.50
2023-01-03T13:22:54.937Z,100851.66
2023-01-03T13:28:20.663Z,100859.98
2023-01-03T13:33:23.663Z,100862.52
2023-01-03T13:38:37.241Z,100872.51
2023-01-03T13:43:40.496Z,100870.15
2023-01-03T13:48:53.763Z,100884.77
2023-01-03T13:54:01.511Z,100888.10
2023-01-03T13:59:19.899Z,100889.17
2023-01-03T14:04:41.200Z,100885.95
2023-01-03T14:10:10.418Z,100894.38
2023-01-03T14:15:25.916Z,100899.52
2023-01-03T14:20:35.500Z,100905.52
2023-01-03T14:25:43.607Z,100907.00
2023-01-03T14:30:52.238Z,100908.02
2023-01-03T14:36:04.016Z,100905.25
2023-01-03T14:41:07.068Z,100907.64
2023-01-03T14:46:12.377Z,100908.06
2023-01-03T14:51:18.454Z,100915.09
2023-01-03T14:56:25.860Z,100916.08
2023-01-03T15:01:30.126Z,100919.34
2023-01-03T15:06:33.461Z,100919.65
2023-01-03T15:11:56.542Z,100922.33
2023-01-03T15:17:26.082Z,100921.23
2023-01-03T15:22:40.629Z,100933.15
2023-01-03T15:27:49.232Z,100939.57
2023-01-03T15:32:54.950Z,100941.16
2023-01-03T15:38:01.448Z,100946.05
2023-01-03T15:43:22.190Z,100949.05
2023-01-03T15:48:27.032Z,100948.79
2023-01-03T15:53:44.213Z,100953.56
2023-01-03T15:58:49.825Z,100956.92
2023-01-03T16:03:53.788Z,100959.72
2023-01-03T16:08:57.164Z,100966.87
2023-01-03T16:14:03.354Z,100974.55
2023-01-03T16:19:07.884Z,100974.08
2023-01-03T16:24:16.143Z,100979.14
2023-01-03T16:29:19.130Z,100980.90
2023-01-03T16:34:27.460Z,100986.13
2023-01-03T16:39:33.333Z,100984.73
2023-01-03T16:44:38.281Z,100981.74
2023-01-03T16:49:43.745Z,100978.58
2023-01-03T16:54:46.956Z,100986.86
2023-01-03T16:59:50.467Z,100987.00
2023-01-03T17:04:53.582Z,100992.18
2023-01-03T17:09:56.588Z,100991.80
2023-01-03T17:15:00.005Z,100989.87
2023-01-03T17:20:11.310Z,100996.80
2023-01-03T17:25:14.629Z,100997.14
2023-01-03T17:30:21.017Z,101001.42
2023-01-03T17:35:24.216Z,100998.10
2023-01-03T17:40:33.394Z,101003.96
2023-01-03T17:45:55.801Z,101014.84
2023-01-03T17:50:59.549Z,101018.30
2023-01-03T17:56:03.184Z,101030.49
2023-01-03T18:01:08.600Z,101025.62
2023-01-03T18:06:17.545Z,101027.32
2023-01-03T18:11:25.468Z,101029.55
2023-01-03T18:16:28.553Z,101035.59
2023-01-03T18:21:33.643Z,101039.21
2023-01-03T18:26:39.951Z,101045.71
2023-01-03T18:31:44.641Z,101054.63
2023-01-03T18:36:51.496Z,101051.95
2023-01-03T18:42:16.224Z,101058.01
2023-01-03T18:47:19.224Z,101063.27
2023-01-03T18:52:29.343Z,101061.85
2023-01-03T18:57:32.698Z,101062.19
2023-01-03T19:02:36.701Z,101065.48
2023-01-03T19:07:40.878Z,101063.59
2023-01-03T19:12:43.869Z,101068.30
2023-01-03T19:17:46.885Z,101070.39
2023-01-03T19:22:52.001Z,101077.83
2023-01-03T19:27:59.248Z,101085.12
2023-01-03T19:33:02.250Z,101085.30
2023-01-03T19:38:05.558Z,101094.48
2023-01-03T19:43:20.864Z,101094.83
2023-01-03T19:48:26.463Z,101099.13
2023-01-03T19:53:29.431Z,101104.11
2023-01-03T19:58:37.436Z,101115.33
2023-01-03T20:03:40.807Z,101116.29
2023-01-03T20:08:45.492Z,101113.99
2023-01-03T20:13:49.851Z,101114.70
2023-01-03T20:18:52.860Z,101123.16
2023-01-03T20:23:59.795Z,101133.48
2023-01-03T20:29:02.774Z,101133.63
2023-01-03T20:34:06.803Z,101131.89
2023-01-03T20:39:24.238Z,101130.00
2023-01-03T20:44:27.654Z,101135.44
2023-01-03T20:49:39.769Z,101138.58
2023-01-03T20:54:43.189Z,101139.95
2023-01-03T20:59:47.726Z,101136.02
2023-01-03T21:04:51.045Z,101132.52
2023-01-03T21:09:54.255Z,101133.91
2023-01-03T21:14:57.367Z,101124.88
2023-01-03T21:20:00.269Z,101128.04
2023-01-03T21:25:03.304Z,101125.73
2023-01-03T21:30:08.895Z,101132.27
2023-01-03T21:35:15.373Z,101138.08
2023-01-03T21:40:21.300Z,101145.64
2023-01-03T21:45:24.428Z,101148.30
2023-01-03T21:50:28.628Z,101158.97
2023-01-03T21:55:31.672Z,101162.89
2023-01-03T22:00:34.737Z,101162.32
2023-01-03T22:05:37.664Z,101157.92
2023-01-03T22:10:42.423Z,101159.70
2023-01-03T22:15:45.320Z,101165.57
2023-01-03T22:20:48.339Z,101170.36
2023-01-03T22:25:51.360Z,101165.26
2023-01-03T22:30:54.346Z,101164.61
2023-01-03T22:35:58.169Z,101164.20
2023-01-03T22:41:01.382Z,101169.79
2023-01-03T22:46:09.905Z,101180.16
2023-01-03T22:51:15.428Z,101184.11
2023-01-03T22:56:18.690Z,101188.98
2023-01-03T23:01:28.066Z,101184.74
2023-01-03T23:06:32.898Z,101187.92
2023-01-03T23:11:54.434Z,101186.36
2023-01-03T23:16:57.766Z,101183.27
2023-01-03T23:22:00.753Z,101186.74
2023-01-03T23:27:03.878Z,101189.73
2023-01-03T23:32:06.981Z,101193.25
2023-01-03T23:37:09.987Z,101196.84
2023-01-03T23:42:12.987Z,101195.52
2023-01-03T23:47:16.091Z,101192.92
2023-01-03T23:52:19.108Z,101188.80
2023-01-03T23:57:22.208Z,101178.96
